createdAt,value
2022-11-16T00:01:41.172Z,8.07
2022-11-16T00:04:11.922Z,9.40
2022-11-16T00:06:38.792Z,8.85
2022-11-16T00:09:20.830Z,9.38
2022-11-16T00:11:51.326Z,9.68
2022-11-16T00:14:19.601Z,8.55
2022-11-16T00:16:46.733Z,8.77
2022-11-16T00:19:13.545Z,8.75
2022-11-16T00:21:40.602Z,8.65
2022-11-16T00:24:07.884Z,9.70
2022-11-16T00:26:34.525Z,9.07
2022-11-16T00:29:01.238Z,10.77
2022-11-16T00:31:27.870Z,8.82
2022-11-16T00:33:54.497Z,9.40
2022-11-16T00:36:21.177Z,8.38
2022-11-16T00:38:48.248Z,8.45
2022-11-16T00:41:14.936Z,9.43
2022-11-16T00:43:41.886Z,9.07
2022-11-16T00:46:08.941Z,9.00
2022-11-16T00:48:35.739Z,9.38
2022-11-16T00:51:02.536Z,9.50
2022-11-16T00:53:29.188Z,9.50
2022-11-16T00:55:55.757Z,9.30
2022-11-16T00:58:22.561Z,10.50
2022-11-16T01:00:49.318Z,9.60
2022-11-16T01:03:16.306Z,8.98
2022-11-16T01:05:42.989Z,10.27
2022-11-16T01:08:09.629Z,9.55
2022-11-16T01:10:41.204Z,9.57
2022-11-16T01:13:07.887Z,9.68
2022-11-16T01:15:34.553Z,9.57
2022-11-16T01:18:01.134Z,11.15
2022-11-16T01:20:29.609Z,9.40
2022-11-16T01:22:56.948Z,9.23
2022-11-16T01:25:23.663Z,10.23
2022-11-16T01:27:50.225Z,10.20
2022-11-16T01:30:16.911Z,9.77
2022-11-16T01:32:43.539Z,10.73
2022-11-16T01:35:14.431Z,10.65
2022-11-16T01:37:44.333Z,8.95
2022-11-16T01:40:12.863Z,8.70
2022-11-16T01:42:40.596Z,9.40
2022-11-16T01:45:18.974Z,9.05
2022-11-16T01:47:45.871Z,9.65
2022-11-16T01:50:16.516Z,8.55
2022-11-16T01:52:52.483Z,8.60
2022-11-16T01:55:19.891Z,10.55
2022-11-16T01:57:48.021Z,8.32
2022-11-16T02:00:15.638Z,9.95
2022-11-16T02:02:42.671Z,9.80
2022-11-16T02:05:13.240Z,10.15
2022-11-16T02:08:11.432Z,9.82
2022-11-16T02:10:53.866Z,9.18
2022-11-16T02:13:51.658Z,9.20
2022-11-16T02:16:24.686Z,8.98
2022-11-16T02:19:08.212Z,9.02
2022-11-16T02:21:43.438Z,8.95
2022-11-16T02:24:42.305Z,9.02
2022-11-16T02:27:21.580Z,8.95
2022-11-16T02:29:53.217Z,9.48
2022-11-16T02:32:25.301Z,8.60
2022-11-16T02:34:59.646Z,8.07
2022-11-16T02:37:31.537Z,8.13
2022-11-16T02:40:02.649Z,8.63
2022-11-16T02:42:35.774Z,8.73
2022-11-16T02:45:05.714Z,9.05
2022-11-16T02:47:35.438Z,8.88
2022-11-16T02:50:10.201Z,8.57
2022-11-16T02:52:38.585Z,8.95
2022-11-16T02:55:05.729Z,7.90
2022-11-16T02:57:44.751Z,7.60
2022-11-16T03:00:18.565Z,8.30
2022-11-16T03:02:50.437Z,7.95
2022-11-16T03:05:44.360Z,7.60
2022-11-16T03:08:29.982Z,6.93
2022-11-16T03:11:19.731Z,7.20
2022-11-16T03:13:47.309Z,8.93
2022-11-16T03:16:20.280Z,7.47
2022-11-16T03:18:49.817Z,7.30
2022-11-16T03:21:31.714Z,6.82
2022-11-16T03:23:58.512Z,7.68
2022-11-16T03:26:32.043Z,6.90
2022-11-16T03:29:05.861Z,6.10
2022-11-16T03:31:43.907Z,7.43
2022-11-16T03:34:16.209Z,6.88
2022-11-16T03:36:46.426Z,6.88
2022-11-16T03:39:20.458Z,6.82
2022-11-16T03:41:49.156Z,6.80
2022-11-16T03:44:17.360Z,7.03
2022-11-16T03:46:45.574Z,7.03
2022-11-16T03:49:12.545Z,7.22
2022-11-16T03:51:39.472Z,7.30
2022-11-16T03:54:06.179Z,7.68
2022-11-16T03:56:32.762Z,7.82
2022-11-16T03:58:59.295Z,7.40
2022-11-16T04:01:25.983Z,7.07
2022-11-16T04:03:52.622Z,7.53
2022-11-16T04:06:34.673Z,7.95
2022-11-16T04:09:16.476Z,8.35
2022-11-16T04:11:58.478Z,7.75
2022-11-16T04:14:40.799Z,8.35
2022-11-16T04:17:32.816Z,8.45
2022-11-16T04:20:14.880Z,7.63
2022-11-16T04:23:02.577Z,8.35
2022-11-16T04:25:34.589Z,8.00
2022-11-16T04:28:17.718Z,8.40
2022-11-16T04:31:05.898Z,7.25
2022-11-16T04:33:48.211Z,8.85
2022-11-16T04:36:30.228Z,8.73
2022-11-16T04:38:56.794Z,8.18
2022-11-16T04:41:39.220Z,8.13
2022-11-16T04:44:05.937Z,8.10
2022-11-16T04:46:47.944Z,7.30
2022-11-16T04:53:46.319Z,7.22
2022-11-16T05:01:00.559Z,8.20
2022-11-16T05:11:43.468Z,8.85
2022-11-16T05:14:10.847Z,7.93
2022-11-16T05:16:38.158Z,8.93
2022-11-16T05:19:20.297Z,8.30
2022-11-16T05:21:47.125Z,7.10
2022-11-16T05:24:28.998Z,7.30
2022-11-16T05:26:55.634Z,7.28
2022-11-16T05:29:22.289Z,7.03
2022-11-16T05:31:48.885Z,7.53
2022-11-16T05:34:15.468Z,6.47
2022-11-16T05:36:42.173Z,7.75
2022-11-16T05:39:12.052Z,6.82
2022-11-16T05:41:38.690Z,7.00
2022-11-16T05:44:05.533Z,8.18
2022-11-16T05:46:32.324Z,7.72
2022-11-16T05:48:59.068Z,7.60
2022-11-16T05:51:25.664Z,8.50
2022-11-16T05:53:52.380Z,6.85
2022-11-16T05:56:19.551Z,7.07
2022-11-16T05:58:46.586Z,7.25
2022-11-16T06:01:13.242Z,7.78
2022-11-16T06:03:40.014Z,6.65
2022-11-16T06:06:06.944Z,7.28
2022-11-16T06:08:33.989Z,8.13
2022-11-16T06:11:04.769Z,8.13
2022-11-16T06:13:32.847Z,9.07
2022-11-16T06:16:00.556Z,8.60
2022-11-16T06:18:27.380Z,7.22
2022-11-16T06:20:54.101Z,9.20
2022-11-16T06:23:21.046Z,8.23
2022-11-16T06:25:52.426Z,9.00
2022-11-16T06:28:19.083Z,8.65
2022-11-16T06:30:45.684Z,7.93
2022-11-16T06:33:12.374Z,7.95
2022-11-16T06:35:39.041Z,8.32
2022-11-16T06:38:06.135Z,9.57
2022-11-16T06:40:34.069Z,7.57
2022-11-16T06:43:00.972Z,8.55
2022-11-16T06:45:27.611Z,8.38
2022-11-16T06:47:54.362Z,8.85
2022-11-16T06:50:21.097Z,8.77
2022-11-16T06:52:49.125Z,9.82
2022-11-16T06:55:16.710Z,9.32
2022-11-16T06:57:43.363Z,8.68
2022-11-16T07:00:11.457Z,8.05
2022-11-16T07:02:39.088Z,8.57
2022-11-16T07:05:07.282Z,7.35
2022-11-16T07:07:34.051Z,7.80
2022-11-16T07:10:00.777Z,7.63
2022-11-16T07:12:27.376Z,7.72
2022-11-16T07:14:54.050Z,7.55
2022-11-16T07:17:20.695Z,8.18
2022-11-16T07:19:47.327Z,8.07
2022-11-16T07:22:13.966Z,7.47
2022-11-16T07:24:40.572Z,7.45
2022-11-16T07:27:08.336Z,8.02
2022-11-16T07:29:34.977Z,8.82
2022-11-16T07:32:01.728Z,8.45
2022-11-16T07:34:28.375Z,8.93
2022-11-16T07:36:55.036Z,8.63
2022-11-16T07:39:21.914Z,9.30
2022-11-16T07:41:50.451Z,8.43
2022-11-16T07:44:17.129Z,9.00
2022-11-16T07:46:47.109Z,9.63
2022-11-16T07:49:16.909Z,9.63
2022-11-16T07:51:43.880Z,9.68
2022-11-16T07:54:14.449Z,11.82
2022-11-16T07:56:41.428Z,13.02
2022-11-16T07:59:08.825Z,12.45
2022-11-16T08:01:35.636Z,13.98
2022-11-16T08:04:02.763Z,14.40
2022-11-16T08:06:31.452Z,14.20
2022-11-16T08:08:59.280Z,13.88
2022-11-16T08:11:26.522Z,14.90
2022-11-16T08:13:53.325Z,14.23
2022-11-16T08:16:24.572Z,15.15
2022-11-16T08:18:51.299Z,13.60
2022-11-16T08:21:19.186Z,15.23
2022-11-16T08:23:46.253Z,14.70
2022-11-16T08:26:15.901Z,14.30
2022-11-16T08:28:45.028Z,14.20
2022-11-16T08:31:15.016Z,15.68
2022-11-16T08:33:42.100Z,16.05
2022-11-16T08:36:14.263Z,13.70
2022-11-16T08:38:41.117Z,15.57
2022-11-16T08:41:07.923Z,16.50
2022-11-16T08:43:35.874Z,15.55
2022-11-16T08:46:03.287Z,16.05
2022-11-16T08:48:30.006Z,17.50
2022-11-16T08:51:16.927Z,18.30
2022-11-16T08:53:45.354Z,17.15
2022-11-16T08:56:13.729Z,19.40
2022-11-16T08:58:44.223Z,20.40
2022-11-16T09:01:16.503Z,18.83
2022-11-16T09:03:43.427Z,17.58
2022-11-16T09:06:11.712Z,16.98
2022-11-16T09:08:40.547Z,18.13
2022-11-16T09:11:10.001Z,18.17
2022-11-16T09:13:40.096Z,19.20
2022-11-16T09:16:07.100Z,19.15
2022-11-16T09:18:34.263Z,18.20
2022-11-16T09:21:01.208Z,13.35
2022-11-16T09:23:28.295Z,14.75
2022-11-16T09:25:54.993Z,15.18
2022-11-16T09:28:22.391Z,18.63
2022-11-16T09:30:51.208Z,17.60
2022-11-16T09:33:18.367Z,18.52
2022-11-16T09:35:45.472Z,19.58
2022-11-16T09:38:17.482Z,16.05
2022-11-16T09:40:52.073Z,17.65
2022-11-16T09:43:47.021Z,17.90
2022-11-16T09:46:30.172Z,16.85
2022-11-16T09:49:00.340Z,17.02
2022-11-16T09:51:32.629Z,18.25
2022-11-16T09:54:05.510Z,17.13
2022-11-16T09:56:36.862Z,17.35
2022-11-16T09:59:24.911Z,16.38
2022-11-16T10:01:52.580Z,16.95
2022-11-16T10:04:38.516Z,16.20
2022-11-16T10:07:24.567Z,16.50
2022-11-16T10:09:52.123Z,16.40
2022-11-16T10:12:24.744Z,15.77
2022-11-16T10:15:04.597Z,16.85
2022-11-16T10:17:32.230Z,15.23
2022-11-16T10:20:19.291Z,16.75
2022-11-16T10:22:52.927Z,15.88
2022-11-16T10:25:22.755Z,15.10
2022-11-16T10:28:09.478Z,14.88
2022-11-16T10:30:44.656Z,14.52
2022-11-16T10:33:16.681Z,15.57
2022-11-16T10:35:47.872Z,15.75
2022-11-16T10:38:17.764Z,13.85
2022-11-16T10:40:49.932Z,13.80
2022-11-16T10:43:20.010Z,12.85
2022-11-16T10:45:57.983Z,13.80
2022-11-16T10:49:04.466Z,14.30
2022-11-16T10:51:31.114Z,14.05
2022-11-16T10:53:57.901Z,13.75
2022-11-16T10:56:37.298Z,12.43
2022-11-16T10:59:06.857Z,12.60
2022-11-16T11:01:36.369Z,12.27
2022-11-16T11:04:18.369Z,12.93
2022-11-16T11:06:47.879Z,13.45
2022-11-16T11:09:18.646Z,13.25
2022-11-16T11:12:28.349Z,13.90
2022-11-16T11:15:25.940Z,12.63
2022-11-16T11:18:13.147Z,12.02
2022-11-16T11:20:45.190Z,12.90
2022-11-16T11:23:21.953Z,12.43
2022-11-16T11:25:50.659Z,12.02
2022-11-16T11:28:23.355Z,12.48
2022-11-16T11:31:01.722Z,11.43
2022-11-16T11:33:39.627Z,12.82
2022-11-16T11:36:08.722Z,12.95
2022-11-16T11:39:04.215Z,12.13
2022-11-16T11:41:38.898Z,12.23
2022-11-16T11:44:15.759Z,12.32
2022-11-16T11:47:29.021Z,13.10
2022-11-16T11:49:49.956Z,11.70
2022-11-16T11:52:22.519Z,11.27
2022-11-16T11:54:53.279Z,11.70
2022-11-16T11:57:23.111Z,12.27
2022-11-16T11:59:52.971Z,13.02
2022-11-16T12:02:43.886Z,12.07
2022-11-16T12:05:25.928Z,11.38
2022-11-16T12:08:23.075Z,10.85
2022-11-16T12:11:11.171Z,11.18
2022-11-16T12:14:06.695Z,11.32
2022-11-16T12:17:08.450Z,10.27
2022-11-16T12:20:05.914Z,9.48
2022-11-16T12:23:04.405Z,8.65
2022-11-16T12:25:53.751Z,9.52
2022-11-16T12:28:50.837Z,9.00
2022-11-16T12:31:18.756Z,9.45
2022-11-16T12:34:02.729Z,10.60
2022-11-16T12:36:51.656Z,9.43
2022-11-16T12:39:33.693Z,9.85
2022-11-16T12:42:21.085Z,9.57
2022-11-16T12:45:32.029Z,8.85
2022-11-16T12:48:25.520Z,8.98
2022-11-16T12:51:18.961Z,8.40
2022-11-16T12:54:13.197Z,8.85
2022-11-16T12:57:00.734Z,10.73
2022-11-16T12:59:34.562Z,9.38
2022-11-16T13:02:17.758Z,9.18
2022-11-16T13:04:51.036Z,8.60
2022-11-16T13:07:24.976Z,9.65
2022-11-16T13:09:58.915Z,9.15
2022-11-16T13:12:27.778Z,9.18
2022-11-16T13:15:00.168Z,9.25
2022-11-16T13:17:31.123Z,9.80
2022-11-16T13:20:28.161Z,9.07
2022-11-16T13:23:10.138Z,9.52
2022-11-16T13:25:45.957Z,8.68
2022-11-16T13:28:23.243Z,8.75
2022-11-16T13:31:02.373Z,8.75
2022-11-16T13:33:50.601Z,8.27
2022-11-16T13:36:43.775Z,8.40
2022-11-16T13:39:21.469Z,8.65
2022-11-16T13:42:08.176Z,8.82
2022-11-16T13:44:34.997Z,8.88
2022-11-16T13:47:05.907Z,8.25
2022-11-16T13:49:40.949Z,8.82
2022-11-16T13:52:23.244Z,8.63
2022-11-16T13:54:54.443Z,9.18
2022-11-16T13:57:27.279Z,8.93
2022-11-16T14:00:11.981Z,8.77
2022-11-16T14:02:41.251Z,8.55
2022-11-16T14:05:36.611Z,7.22
2022-11-16T14:08:23.157Z,7.45
2022-11-16T14:10:50.790Z,7.07
2022-11-16T14:13:39.965Z,7.20
2022-11-16T14:16:22.580Z,7.43
2022-11-16T14:19:05.377Z,8.25
2022-11-16T14:21:53.330Z,9.07
2022-11-16T14:24:35.345Z,8.50
2022-11-16T14:27:07.736Z,9.05
2022-11-16T14:30:03.671Z,8.32
2022-11-16T14:32:39.624Z,8.93
2022-11-16T14:35:28.709Z,9.07
2022-11-16T14:38:00.885Z,9.60
2022-11-16T14:40:28.203Z,9.57
2022-11-16T14:43:17.581Z,8.77
2022-11-16T14:45:51.756Z,8.73
2022-11-16T14:48:21.118Z,8.35
2022-11-16T14:51:02.394Z,9.32
2022-11-16T14:53:29.863Z,9.75
2022-11-16T14:56:13.446Z,8.73
2022-11-16T14:58:40.504Z,9.40
2022-11-16T15:01:14.729Z,9.55
2022-11-16T15:03:52.277Z,8.98
2022-11-16T15:06:20.292Z,9.75
2022-11-16T15:09:03.723Z,9.30
2022-11-16T15:11:49.186Z,8.98
2022-11-16T15:14:20.116Z,10.07
2022-11-16T15:16:56.393Z,11.27
2022-11-16T15:19:24.133Z,11.27
2022-11-16T15:21:53.991Z,10.52
2022-11-16T15:24:31.055Z,9.95
2022-11-16T15:27:02.813Z,9.82
2022-11-16T15:29:29.566Z,9.43
2022-11-16T15:31:56.210Z,9.57
2022-11-16T15:34:22.967Z,10.75
2022-11-16T15:36:50.177Z,10.52
2022-11-16T15:39:19.876Z,11.85
2022-11-16T15:41:47.349Z,11.90
2022-11-16T15:44:19.045Z,12.60
2022-11-16T15:46:49.256Z,12.25
2022-11-16T15:49:22.233Z,13.18
2022-11-16T15:51:48.944Z,13.38
2022-11-16T15:54:23.914Z,12.15
2022-11-16T15:56:52.901Z,13.40
2022-11-16T15:59:26.452Z,13.15
2022-11-16T16:01:53.359Z,14.00
2022-11-16T16:04:20.237Z,13.65
2022-11-16T16:06:49.379Z,14.13
2022-11-16T16:09:35.992Z,13.88
2022-11-16T16:12:19.559Z,13.48
2022-11-16T16:14:49.090Z,13.75
2022-11-16T16:17:26.030Z,13.52
2022-11-16T16:20:02.477Z,14.52
2022-11-16T16:22:37.477Z,13.32
2022-11-16T16:25:06.865Z,11.75
2022-11-16T16:27:40.004Z,13.45
2022-11-16T16:30:08.637Z,12.90
2022-11-16T16:32:37.844Z,12.05
2022-11-16T16:35:07.450Z,11.77
2022-11-16T16:37:36.051Z,11.43
2022-11-16T16:40:03.494Z,10.25
2022-11-16T16:42:30.161Z,10.95
2022-11-16T16:44:59.596Z,11.07
2022-11-16T16:47:26.277Z,10.27
2022-11-16T16:49:52.893Z,9.43
2022-11-16T16:52:19.585Z,9.43
2022-11-16T16:54:47.300Z,9.55
2022-11-16T16:57:15.895Z,8.88
2022-11-16T16:59:45.664Z,9.63
2022-11-16T17:02:13.263Z,9.02
2022-11-16T17:04:40.439Z,9.18
2022-11-16T17:07:20.239Z,8.05
2022-11-16T17:09:46.973Z,10.20
2022-11-16T17:12:13.651Z,8.77
2022-11-16T17:14:40.238Z,8.77
2022-11-16T17:17:10.372Z,8.77
2022-11-16T17:19:36.986Z,8.27
2022-11-16T17:22:03.739Z,7.85
2022-11-16T17:24:30.689Z,7.88
2022-11-16T17:26:57.349Z,8.90
2022-11-16T17:29:24.419Z,8.75
2022-11-16T17:31:51.085Z,8.18
2022-11-16T17:34:17.975Z,8.38
2022-11-16T17:36:45.044Z,8.82
2022-11-16T17:39:11.957Z,8.15
2022-11-16T17:41:38.604Z,8.93
2022-11-16T17:44:09.291Z,9.25
2022-11-16T17:46:36.181Z,8.13
2022-11-16T17:49:03.033Z,7.88
2022-11-16T17:51:29.990Z,6.97
2022-11-16T17:53:56.623Z,6.78
2022-11-16T17:56:26.906Z,7.20
2022-11-16T17:58:55.160Z,7.65
2022-11-16T18:01:22.982Z,7.00
2022-11-16T18:03:49.668Z,7.15
2022-11-16T18:06:18.920Z,7.38
2022-11-16T18:08:46.379Z,7.38
2022-11-16T18:11:15.115Z,8.30
2022-11-16T18:13:42.390Z,9.45
2022-11-16T18:16:13.417Z,7.70
2022-11-16T18:18:40.702Z,7.25
2022-11-16T18:21:08.722Z,7.32
2022-11-16T18:23:36.764Z,5.93
2022-11-16T18:26:14.390Z,5.78
2022-11-16T18:28:41.404Z,6.65
2022-11-16T18:31:11.057Z,6.57
2022-11-16T18:33:38.492Z,5.82
2022-11-16T18:36:07.412Z,6.05
2022-11-16T18:38:34.748Z,6.38
2022-11-16T18:41:19.730Z,6.55
2022-11-16T18:43:50.389Z,6.53
2022-11-16T18:46:18.952Z,6.93
2022-11-16T18:48:46.861Z,6.38
2022-11-16T18:51:15.878Z,7.53
2022-11-16T18:53:42.938Z,6.47
2022-11-16T18:56:11.881Z,7.10
2022-11-16T18:58:54.867Z,7.20
2022-11-16T19:01:24.823Z,8.25
2022-11-16T19:03:53.209Z,8.38
2022-11-16T19:06:20.777Z,8.10
2022-11-16T19:08:54.045Z,7.60
2022-11-16T19:11:23.369Z,7.97
2022-11-16T19:13:54.872Z,8.27
2022-11-16T19:16:22.288Z,7.88
2022-11-16T19:18:48.930Z,7.25
2022-11-16T19:21:18.643Z,7.82
2022-11-16T19:23:47.775Z,8.27
2022-11-16T19:26:16.308Z,7.72
2022-11-16T19:28:45.359Z,7.45
2022-11-16T19:31:29.120Z,8.18
2022-11-16T19:34:00.807Z,7.68
2022-11-16T19:36:29.144Z,8.30
2022-11-16T19:38:56.308Z,7.13
2022-11-16T19:41:24.080Z,7.60
2022-11-16T19:43:57.016Z,7.60
2022-11-16T19:46:24.880Z,7.90
2022-11-16T19:48:52.310Z,8.50
2022-11-16T19:51:21.433Z,8.15
2022-11-16T19:53:48.789Z,8.50
2022-11-16T19:56:17.663Z,7.50
2022-11-16T19:58:44.986Z,9.00
2022-11-16T20:01:13.365Z,8.75
2022-11-16T20:03:41.914Z,8.57
2022-11-16T20:06:08.662Z,8.52
2022-11-16T20:08:36.327Z,7.78
2022-11-16T20:11:11.760Z,8.15
2022-11-16T20:13:38.657Z,8.53
2022-11-16T20:16:07.531Z,7.95
2022-11-16T20:18:34.607Z,8.27
2022-11-16T20:21:02.616Z,9.10
2022-11-16T20:23:29.285Z,10.30
2022-11-16T20:25:55.922Z,10.07
2022-11-16T20:28:22.807Z,9.77
2022-11-16T20:30:49.406Z,10.30
2022-11-16T20:33:16.067Z,9.30
2022-11-16T20:35:42.690Z,8.43
2022-11-16T20:38:09.366Z,7.57
2022-11-16T20:40:36.041Z,7.57
2022-11-16T20:43:02.798Z,7.40
2022-11-16T20:45:33.292Z,7.43
2022-11-16T20:48:00.227Z,7.88
2022-11-16T20:50:27.345Z,8.35
2022-11-16T20:52:53.986Z,7.32
2022-11-16T20:55:21.011Z,8.68
2022-11-16T20:57:47.644Z,7.88
2022-11-16T21:00:14.919Z,8.05
2022-11-16T21:02:41.549Z,7.07
2022-11-16T21:05:08.566Z,7.82
2022-11-16T21:07:35.518Z,7.53
2022-11-16T21:10:17.527Z,8.07
2022-11-16T21:12:59.535Z,9.27
2022-11-16T21:15:26.167Z,8.38
2022-11-16T21:17:56.002Z,10.05
2022-11-16T21:20:29.701Z,7.85
2022-11-16T21:22:56.372Z,8.48
2022-11-16T21:25:23.057Z,8.90
2022-11-16T21:27:49.706Z,7.65
2022-11-16T21:30:16.714Z,6.72
2022-11-16T21:32:43.419Z,6.80
2022-11-16T21:35:10.137Z,6.70
2022-11-16T21:37:36.800Z,7.22
2022-11-16T21:40:03.678Z,7.15
2022-11-16T21:42:30.874Z,6.38
2022-11-16T21:45:00.728Z,6.40
2022-11-16T21:47:27.411Z,6.45
2022-11-16T21:50:24.825Z,6.80
2022-11-16T21:52:40.726Z,7.10
2022-11-16T21:55:07.732Z,6.50
2022-11-16T21:57:34.400Z,7.10
2022-11-16T22:00:01.198Z,6.93
2022-11-16T22:02:27.918Z,6.68
2022-11-16T22:05:09.927Z,6.88
2022-11-16T22:07:37.722Z,6.72
2022-11-16T22:10:10.317Z,7.07
2022-11-16T22:12:37.746Z,7.57
2022-11-16T22:15:06.106Z,7.20
2022-11-16T22:17:33.406Z,7.63
2022-11-16T22:20:00.051Z,7.45
2022-11-16T22:22:26.878Z,6.72
2022-11-16T22:24:53.748Z,6.15
2022-11-16T22:27:20.495Z,7.45
2022-11-16T22:29:47.242Z,7.70
2022-11-16T22:32:16.221Z,6.72
2022-11-16T22:34:43.074Z,7.82
2022-11-16T22:37:09.766Z,7.18
2022-11-16T22:39:37.748Z,7.60
2022-11-16T22:42:04.883Z,7.72
2022-11-16T22:44:31.586Z,8.40
2022-11-16T22:46:58.242Z,7.40
2022-11-16T22:49:25.104Z,7.65
2022-11-16T22:51:51.816Z,7.78
2022-11-16T22:54:18.555Z,7.20
2022-11-16T22:56:46.345Z,8.60
2022-11-16T22:59:13.012Z,7.78
2022-11-16T23:01:39.707Z,7.20
2022-11-16T23:04:06.363Z,8.60
2022-11-16T23:06:33.036Z,7.82
2022-11-16T23:08:59.671Z,8.07
2022-11-16T23:11:41.993Z,7.88
2022-11-16T23:14:27.630Z,8.27
2022-11-16T23:16:54.270Z,8.95
2022-11-16T23:19:37.398Z,7.60
2022-11-16T23:22:20.749Z,8.38
2022-11-16T23:25:02.776Z,7.90
2022-11-16T23:27:34.290Z,8.15
2022-11-16T23:30:09.261Z,9.05
2022-11-16T23:32:39.139Z,8.82
2022-11-16T23:35:06.186Z,8.02
2022-11-16T23:37:32.826Z,8.35
2022-11-16T23:39:59.491Z,8.15
2022-11-16T23:42:41.340Z,9.40
2022-11-16T23:45:08.334Z,9.02
2022-11-16T23:47:34.991Z,8.60
2022-11-16T23:50:01.876Z,8.75
2022-11-16T23:52:28.542Z,7.78
2022-11-16T23:54:55.154Z,7.82
2022-11-16T23:57:21.740Z,7.82
2022-11-16T23:59:48.357Z,6.97
